createdAt,value
2023-05-21T00:01:30.369Z,102506.25
2023-05-21T00:04:00.100Z,102494.78
2023-05-21T00:06:28.590Z,102501.63
2023-05-21T00:08:56.923Z,102495.63
2023-05-21T00:11:25.366Z,102501.09
2023-05-21T00:13:53.574Z,102499.28
2023-05-21T00:16:22.313Z,102495.63
2023-05-21T00:18:54.635Z,102499.28
2023-05-21T00:21:23.323Z,102501.22
2023-05-21T00:23:51.531Z,102488.94
2023-05-21T00:26:19.815Z,102493.25
2023-05-21T00:28:48.000Z,102495.25
2023-05-21T00:31:17.349Z,102494.59
2023-05-21T00:33:45.649Z,102487.28
2023-05-21T00:36:15.612Z,102487.28
2023-05-21T00:38:45.906Z,102484.81
2023-05-21T00:41:14.610Z,102480.31
2023-05-21T00:43:44.644Z,102482.16
2023-05-21T00:46:16.813Z,102477.81
2023-05-21T00:48:46.490Z,102475.59
2023-05-21T00:51:18.709Z,102464.16
2023-05-21T00:53:47.934Z,102466.97
2023-05-21T00:56:16.166Z,102467.28
2023-05-21T00:58:44.500Z,102463.13
2023-05-21T01:01:14.222Z,102473.75
2023-05-21T01:03:43.414Z,102470.28
2023-05-21T01:06:14.161Z,102467.75
2023-05-21T01:08:44.274Z,102465.78
2023-05-21T01:11:12.966Z,102464.78
2023-05-21T01:13:43.351Z,102460.47
2023-05-21T01:16:13.693Z,102460.66
2023-05-21T01:18:43.817Z,102450.16
2023-05-21T01:21:12.506Z,102450.31
2023-05-21T01:23:42.250Z,102449.63
2023-05-21T01:26:13.123Z,102439.88
2023-05-21T01:28:42.265Z,102444.47
2023-05-21T01:31:20.793Z,102441.16
2023-05-21T01:33:51.365Z,102440.34
2023-05-21T01:36:26.437Z,102440.16
2023-05-21T01:39:02.194Z,102433.03
2023-05-21T01:41:33.458Z,102438.66
2023-05-21T01:44:03.456Z,102437.69
2023-05-21T01:46:34.752Z,102442.13
2023-05-21T01:49:04.054Z,102438.66
2023-05-21T01:51:32.730Z,102430.03
2023-05-21T01:54:02.871Z,102439.63
2023-05-21T01:56:34.087Z,102438.81
2023-05-21T01:59:02.378Z,102443.47
2023-05-21T02:01:30.795Z,102435.78
2023-05-21T02:03:59.537Z,102436.78
2023-05-21T02:06:27.928Z,102429.81
2023-05-21T02:08:56.723Z,102425.63
2023-05-21T02:11:26.479Z,102428.59
2023-05-21T02:13:54.748Z,102425.13
2023-05-21T02:16:22.948Z,102431.25
2023-05-21T02:18:53.871Z,102428.47
2023-05-21T02:21:22.307Z,102431.13
2023-05-21T02:23:50.647Z,102437.72
2023-05-21T02:26:19.002Z,102438.56
2023-05-21T02:28:48.761Z,102436.34
2023-05-21T02:31:17.120Z,102437.47
2023-05-21T02:33:45.324Z,102436.97
2023-05-21T02:36:15.529Z,102434.47
2023-05-21T02:38:43.979Z,102448.44
2023-05-21T02:41:12.547Z,102440.59
2023-05-21T02:43:41.125Z,102437.28
2023-05-21T02:46:10.741Z,102437.44
2023-05-21T02:48:38.988Z,102440.41
2023-05-21T02:51:07.351Z,102441.69
2023-05-21T02:53:35.912Z,102434.88
2023-05-21T02:56:04.226Z,102440.31
2023-05-21T02:58:33.425Z,102435.72
2023-05-21T03:01:01.736Z,102441.31
2023-05-21T03:03:32.601Z,102436.00
2023-05-21T03:06:00.977Z,102443.28
2023-05-21T03:08:29.126Z,102436.31
2023-05-21T03:10:57.428Z,102436.31
2023-05-21T03:13:25.738Z,102431.16
2023-05-21T03:15:56.574Z,102428.81
2023-05-21T03:18:25.342Z,102436.09
2023-05-21T03:20:54.932Z,102429.66
2023-05-21T03:23:23.279Z,102427.13
2023-05-21T03:25:52.131Z,102417.22
2023-05-21T03:28:20.457Z,102415.53
2023-05-21T03:30:49.785Z,102409.56
2023-05-21T03:33:18.600Z,102411.00
2023-05-21T03:35:47.096Z,102417.16
2023-05-21T03:38:16.734Z,102414.78
2023-05-21T03:40:45.107Z,102414.78
2023-05-21T03:43:13.275Z,102417.56
2023-05-21T03:45:44.211Z,102421.22
2023-05-21T03:48:12.780Z,102408.25
2023-05-21T03:50:41.629Z,102423.34
2023-05-21T03:53:10.964Z,102416.50
2023-05-21T03:55:40.659Z,102417.66
2023-05-21T03:58:09.698Z,102424.91
2023-05-21T04:00:38.302Z,102421.59
2023-05-21T04:03:07.346Z,102428.72
2023-05-21T04:05:35.984Z,102419.94
2023-05-21T04:08:04.533Z,102416.75
2023-05-21T04:10:32.782Z,102416.91
2023-05-21T04:13:02.499Z,102413.25
2023-05-21T04:15:30.690Z,102410.44
2023-05-21T04:17:59.020Z,102413.94
2023-05-21T04:20:27.170Z,102406.66
2023-05-21T04:22:55.483Z,102400.53
2023-05-21T04:25:23.969Z,102402.72
2023-05-21T04:27:52.725Z,102398.25
2023-05-21T04:30:24.228Z,102401.91
2023-05-21T04:32:52.894Z,102400.22
2023-05-21T04:35:21.216Z,102402.41
2023-05-21T04:37:49.393Z,102396.28
2023-05-21T04:40:18.463Z,102405.75
2023-05-21T04:42:48.528Z,102402.13
2023-05-21T04:45:17.864Z,102401.97
2023-05-21T04:47:48.033Z,102405.16
2023-05-21T04:50:16.344Z,102397.06
2023-05-21T04:52:45.713Z,102393.28
2023-05-21T04:55:14.006Z,102390.47
2023-05-21T04:57:42.223Z,102390.34
2023-05-21T05:00:11.764Z,102385.69
2023-05-21T05:02:40.201Z,102382.75
2023-05-21T05:05:10.733Z,102381.59
2023-05-21T05:07:38.992Z,102385.44
2023-05-21T05:10:08.247Z,102383.31
2023-05-21T05:12:36.518Z,102382.03
2023-05-21T05:15:05.233Z,102380.72
2023-05-21T05:17:34.895Z,102372.59
2023-05-21T05:20:03.862Z,102370.47
2023-05-21T05:22:33.576Z,102374.63
2023-05-21T05:25:01.799Z,102369.19
2023-05-21T05:27:30.030Z,102369.00
2023-05-21T05:29:58.358Z,102378.16
2023-05-21T05:32:26.600Z,102382.66
2023-05-21T05:34:54.937Z,102379.53
2023-05-21T05:37:23.277Z,102374.22
2023-05-21T05:39:53.192Z,102377.69
2023-05-21T05:42:21.415Z,102376.72
2023-05-21T05:44:49.698Z,102385.53
2023-05-21T05:47:18.284Z,102386.19
2023-05-21T05:49:46.486Z,102386.84
2023-05-21T05:52:14.897Z,102379.41
2023-05-21T05:54:43.262Z,102371.31
2023-05-21T05:57:13.066Z,102370.16
2023-05-21T05:59:41.349Z,102376.16
2023-05-21T06:02:09.690Z,102378.47
2023-05-21T06:04:37.933Z,102381.28
2023-05-21T06:07:06.617Z,102373.16
2023-05-21T06:09:34.928Z,102381.94
2023-05-21T06:12:03.269Z,102385.28
2023-05-21T06:14:32.962Z,102393.25
2023-05-21T06:17:01.252Z,102389.63
2023-05-21T06:19:29.863Z,102385.66
2023-05-21T06:21:58.291Z,102388.97
2023-05-21T06:24:26.929Z,102396.47
2023-05-21T06:26:55.873Z,102396.16
2023-05-21T06:29:24.135Z,102394.69
2023-05-21T06:31:53.772Z,102397.16
2023-05-21T06:34:22.029Z,102400.19
2023-05-21T06:36:50.252Z,102401.03
2023-05-21T06:39:18.417Z,102405.00
2023-05-21T06:41:46.786Z,102404.72
2023-05-21T06:44:16.401Z,102406.06
2023-05-21T06:46:44.593Z,102409.22
2023-05-21T06:49:15.225Z,102412.56
2023-05-21T06:51:43.523Z,102417.75
2023-05-21T06:54:11.734Z,102420.06
2023-05-21T06:56:39.951Z,102425.06
2023-05-21T06:59:08.221Z,102421.41
2023-05-21T07:01:36.562Z,102416.75
2023-05-21T07:04:04.915Z,102419.41
2023-05-21T07:06:35.149Z,102417.97
2023-05-21T07:09:03.618Z,102419.09
2023-05-21T07:11:32.471Z,102417.97
2023-05-21T07:14:01.778Z,102422.28
2023-05-21T07:16:30.173Z,102412.16
2023-05-21T07:18:58.389Z,102415.31
2023-05-21T07:21:26.663Z,102414.50
2023-05-21T07:23:56.853Z,102415.66
2023-05-21T07:26:26.386Z,102422.19
2023-05-21T07:28:54.672Z,102415.53
2023-05-21T07:31:23.089Z,102407.75
2023-05-21T07:33:51.341Z,102419.25
2023-05-21T07:36:19.669Z,102409.59
2023-05-21T07:38:47.856Z,102409.94
2023-05-21T07:41:18.833Z,102410.44
2023-05-21T07:43:47.313Z,102414.44
2023-05-21T07:46:15.630Z,102414.44
2023-05-21T07:48:44.165Z,102409.59
2023-05-21T07:51:12.821Z,102413.75
2023-05-21T07:53:41.239Z,102418.75
2023-05-21T07:56:09.733Z,102413.25
2023-05-21T07:58:39.562Z,102418.91
2023-05-21T08:01:07.814Z,102413.91
2023-05-21T08:03:36.140Z,102416.44
2023-05-21T08:06:04.967Z,102424.25
2023-05-21T08:08:33.280Z,102419.25
2023-05-21T08:11:01.993Z,102426.56
2023-05-21T08:13:30.255Z,102425.91
2023-05-21T08:16:00.036Z,102425.88
2023-05-21T08:18:28.675Z,102420.88
2023-05-21T08:20:56.893Z,102422.84
2023-05-21T08:23:25.138Z,102426.84
2023-05-21T08:25:53.785Z,102422.81
2023-05-21T08:28:23.349Z,102430.25
2023-05-21T08:30:51.609Z,102426.06
2023-05-21T08:33:21.647Z,102430.72
2023-05-21T08:35:50.009Z,102434.03
2023-05-21T08:38:18.257Z,102437.06
2023-05-21T08:40:47.915Z,102436.03
2023-05-21T08:43:17.409Z,102444.69
2023-05-21T08:45:47.972Z,102440.19
2023-05-21T08:48:17.922Z,102444.03
2023-05-21T08:50:48.190Z,102450.03
2023-05-21T08:53:27.357Z,102445.69
2023-05-21T08:55:57.574Z,102448.53
2023-05-21T08:58:26.160Z,102453.06
2023-05-21T09:00:56.328Z,102461.03
2023-05-21T09:03:25.521Z,102457.38
2023-05-21T09:05:55.526Z,102452.38
2023-05-21T09:08:31.308Z,102453.91
2023-05-21T09:10:59.558Z,102454.91
2023-05-21T09:13:28.786Z,102447.94
2023-05-21T09:15:57.540Z,102460.13
2023-05-21T09:18:27.614Z,102454.13
2023-05-21T09:20:57.807Z,102461.47
2023-05-21T09:23:26.087Z,102461.16
2023-05-21T09:25:54.469Z,102457.81
2023-05-21T09:28:23.371Z,102467.97
2023-05-21T09:30:54.455Z,102464.16
2023-05-21T09:33:27.020Z,102468.31
2023-05-21T09:35:56.949Z,102469.66
2023-05-21T09:38:26.031Z,102473.50
2023-05-21T09:40:56.818Z,102460.84
2023-05-21T09:43:25.328Z,102464.69
2023-05-21T09:45:56.126Z,102461.03
2023-05-21T09:48:43.297Z,102458.34
2023-05-21T09:51:16.265Z,102458.84
2023-05-21T09:53:46.098Z,102462.16
2023-05-21T09:56:14.429Z,102469.16
2023-05-21T09:58:42.813Z,102468.00
2023-05-21T10:01:12.527Z,102474.66
2023-05-21T10:03:41.702Z,102480.84
2023-05-21T10:06:10.649Z,102482.34
2023-05-21T10:08:46.266Z,102491.16
2023-05-21T10:11:15.657Z,102489.13
2023-05-21T10:13:50.396Z,102482.13
2023-05-21T10:16:19.500Z,102475.13
2023-05-21T10:18:49.753Z,102479.16
2023-05-21T10:21:19.501Z,102475.34
2023-05-21T10:23:50.078Z,102472.19
2023-05-21T10:26:19.890Z,102471.84
2023-05-21T10:28:48.201Z,102463.53
2023-05-21T10:31:16.819Z,102470.84
2023-05-21T10:33:45.150Z,102473.31
2023-05-21T10:36:14.020Z,102471.16
2023-05-21T10:38:43.707Z,102459.50
2023-05-21T10:41:14.564Z,102464.50
2023-05-21T10:43:51.904Z,102460.00
2023-05-21T10:46:49.871Z,102456.19
2023-05-21T10:49:39.863Z,102457.84
2023-05-21T10:52:16.901Z,102443.34
2023-05-21T10:55:17.867Z,102447.50
2023-05-21T10:58:12.260Z,102445.81
2023-05-21T11:00:40.992Z,102442.44
2023-05-21T11:03:10.102Z,102441.59
2023-05-21T11:05:42.362Z,102448.69
2023-05-21T11:08:27.606Z,102442.03
2023-05-21T11:10:58.338Z,102442.44
2023-05-21T11:13:31.442Z,102433.28
2023-05-21T11:16:09.386Z,102431.56
2023-05-21T11:19:02.911Z,102433.06
2023-05-21T11:21:35.125Z,102436.22
2023-05-21T11:24:06.667Z,102435.56
2023-05-21T11:27:07.152Z,102443.31
2023-05-21T11:29:41.840Z,102445.00
2023-05-21T11:32:10.820Z,102444.81
2023-05-21T11:34:40.883Z,102441.16
2023-05-21T11:37:30.421Z,102440.50
2023-05-21T11:40:00.433Z,102444.13
2023-05-21T11:42:34.125Z,102438.44
2023-05-21T11:45:04.884Z,102428.25
2023-05-21T11:47:34.049Z,102429.56
2023-05-21T11:50:03.732Z,102424.31
2023-05-21T11:52:33.283Z,102418.97
2023-05-21T11:55:01.763Z,102433.44
2023-05-21T11:57:32.065Z,102426.28
2023-05-21T12:00:01.618Z,102427.00
2023-05-21T12:02:33.188Z,102431.84
2023-05-21T12:05:01.858Z,102431.56
2023-05-21T12:07:31.381Z,102436.88
2023-05-21T12:10:00.206Z,102435.75
2023-05-21T12:12:35.553Z,102441.22
2023-05-21T12:15:15.063Z,102440.97
2023-05-21T12:17:44.824Z,102435.59
2023-05-21T12:20:17.251Z,102434.81
2023-05-21T12:22:45.998Z,102439.50
2023-05-21T12:25:14.171Z,102440.91
2023-05-21T12:27:45.231Z,102428.66
2023-05-21T12:30:13.908Z,102440.03
2023-05-21T12:32:44.322Z,102433.34
2023-05-21T12:35:24.273Z,102436.94
2023-05-21T12:37:53.306Z,102441.25
2023-05-21T12:40:22.479Z,102437.13
2023-05-21T12:42:51.776Z,102434.28
2023-05-21T12:45:22.811Z,102435.25
2023-05-21T12:47:56.509Z,102441.97
2023-05-21T12:50:26.483Z,102444.75
2023-05-21T12:53:00.133Z,102447.28
2023-05-21T12:55:28.696Z,102443.06
2023-05-21T12:58:05.188Z,102440.69
2023-05-21T13:00:33.893Z,102448.75
2023-05-21T13:03:02.338Z,102442.09
2023-05-21T13:05:32.563Z,102440.94
2023-05-21T13:08:00.817Z,102455.16
2023-05-21T13:10:29.225Z,102448.63
2023-05-21T13:12:57.536Z,102442.72
2023-05-21T13:15:25.737Z,102441.50
2023-05-21T13:17:56.550Z,102443.84
2023-05-21T13:20:27.793Z,102444.38
2023-05-21T13:22:57.549Z,102438.22
2023-05-21T13:25:29.139Z,102434.88
2023-05-21T13:27:58.674Z,102440.34
2023-05-21T13:30:27.062Z,102443.16
2023-05-21T13:32:55.755Z,102450.00
2023-05-21T13:35:25.265Z,102443.63
2023-05-21T13:37:53.463Z,102443.28
2023-05-21T13:40:23.998Z,102444.84
2023-05-21T13:42:52.372Z,102441.81
2023-05-21T13:45:21.817Z,102445.03
2023-05-21T13:47:50.240Z,102442.97
2023-05-21T13:50:18.658Z,102456.13
2023-05-21T13:52:47.286Z,102449.19
2023-05-21T13:55:16.165Z,102460.88
2023-05-21T13:57:46.998Z,102462.69
2023-05-21T14:00:16.328Z,102472.13
2023-05-21T14:02:45.329Z,102461.13
2023-05-21T14:05:13.913Z,102469.03
2023-05-21T14:07:42.986Z,102460.94
2023-05-21T14:10:11.942Z,102462.84
2023-05-21T14:12:40.884Z,102465.22
2023-05-21T14:15:12.099Z,102460.63
2023-05-21T14:17:42.507Z,102461.69
2023-05-21T14:20:12.130Z,102453.13
2023-05-21T14:22:40.374Z,102450.63
2023-05-21T14:25:09.034Z,102457.47
2023-05-21T14:27:38.610Z,102452.84
2023-05-21T14:30:08.008Z,102460.78
2023-05-21T14:32:37.753Z,102457.78
2023-05-21T14:35:06.959Z,102446.28
2023-05-21T14:37:35.182Z,102441.41
2023-05-21T14:40:05.473Z,102446.56
2023-05-21T14:42:33.739Z,102451.81
2023-05-21T14:45:17.566Z,102445.47
2023-05-21T14:47:50.104Z,102448.94
2023-05-21T14:50:20.314Z,102452.13
2023-05-21T14:52:48.543Z,102445.25
2023-05-21T14:55:18.615Z,102437.38
2023-05-21T14:57:46.948Z,102442.47
2023-05-21T15:00:15.699Z,102440.25
2023-05-21T15:02:44.144Z,102442.81
2023-05-21T15:05:13.969Z,102440.88
2023-05-21T15:07:42.271Z,102433.41
2023-05-21T15:10:11.053Z,102447.41
2023-05-21T15:12:39.513Z,102441.97
2023-05-21T15:15:08.495Z,102439.22
2023-05-21T15:17:37.308Z,102443.06
2023-05-21T15:20:06.448Z,102431.22
2023-05-21T15:22:36.339Z,102430.19
2023-05-21T15:25:05.843Z,102434.22
2023-05-21T15:27:34.279Z,102427.75
2023-05-21T15:30:03.348Z,102418.84
2023-05-21T15:32:32.159Z,102422.47
2023-05-21T15:35:00.637Z,102415.38
2023-05-21T15:37:32.244Z,102429.44
2023-05-21T15:40:02.181Z,102425.22
2023-05-21T15:42:31.956Z,102417.00
2023-05-21T15:45:00.313Z,102414.34
2023-05-21T15:47:28.853Z,102411.22
2023-05-21T15:49:58.870Z,102417.72
2023-05-21T15:52:27.320Z,102422.75
2023-05-21T15:54:55.790Z,102422.94
2023-05-21T15:57:25.463Z,102422.75
2023-05-21T15:59:53.576Z,102422.28
2023-05-21T16:02:21.998Z,102425.44
2023-05-21T16:04:52.184Z,102418.91
2023-05-21T16:07:21.105Z,102426.41
2023-05-21T16:09:49.302Z,102433.88
2023-05-21T16:12:17.687Z,102435.09
2023-05-21T16:14:50.042Z,102433.19
2023-05-21T16:17:18.555Z,102437.41
2023-05-21T16:19:47.610Z,102436.81
2023-05-21T16:22:16.190Z,102439.84
2023-05-21T16:24:44.312Z,102431.16
2023-05-21T16:27:12.540Z,102443.81
2023-05-21T16:29:41.100Z,102439.50
2023-05-21T16:32:13.063Z,102440.31
2023-05-21T16:34:41.552Z,102441.81
2023-05-21T16:37:09.992Z,102439.44
2023-05-21T16:39:38.615Z,102436.78
2023-05-21T16:42:07.314Z,102433.97
2023-05-21T16:44:37.119Z,102441.03
2023-05-21T16:47:05.927Z,102442.88
2023-05-21T16:49:35.538Z,102440.25
2023-05-21T16:52:04.080Z,102442.22
2023-05-21T16:54:32.303Z,102443.25
2023-05-21T16:57:00.702Z,102435.25
2023-05-21T16:59:29.551Z,102431.91
2023-05-21T17:01:57.849Z,102439.94
2023-05-21T17:04:26.181Z,102432.31
2023-05-21T17:06:55.834Z,102426.97
2023-05-21T17:09:24.163Z,102424.50
2023-05-21T17:11:52.339Z,102423.38
2023-05-21T17:14:33.206Z,102424.03
2023-05-21T17:17:02.292Z,102429.06
2023-05-21T17:19:30.877Z,102431.38
2023-05-21T17:22:00.763Z,102422.75
2023-05-21T17:24:29.012Z,102425.22
2023-05-21T17:26:57.179Z,102419.28
2023-05-21T17:29:25.399Z,102418.13
2023-05-21T17:31:53.962Z,102416.50
2023-05-21T17:34:24.658Z,102424.38
2023-05-21T17:36:52.965Z,102423.88
2023-05-21T17:39:22.777Z,102432.03
2023-05-21T17:41:51.285Z,102436.53
2023-05-21T17:44:20.790Z,102432.72
2023-05-21T17:46:50.672Z,102432.88
2023-05-21T17:49:19.447Z,102434.56
2023-05-21T17:51:48.153Z,102429.91
2023-05-21T17:54:16.596Z,102433.88
2023-05-21T17:56:46.639Z,102428.25
2023-05-21T17:59:16.073Z,102430.06
2023-05-21T18:01:44.275Z,102432.22
2023-05-21T18:04:13.408Z,102426.91
2023-05-21T18:06:41.730Z,102432.59
2023-05-21T18:09:10.679Z,102437.91
2023-05-21T18:11:38.993Z,102435.41
2023-05-21T18:14:08.570Z,102427.25
2023-05-21T18:16:36.802Z,102432.59
2023-05-21T18:19:06.832Z,102429.25
2023-05-21T18:21:35.681Z,102427.09
2023-05-21T18:24:04.243Z,102427.91
2023-05-21T18:26:32.459Z,102434.25
2023-05-21T18:29:01.234Z,102430.44
2023-05-21T18:31:30.920Z,102430.44
2023-05-21T18:33:59.382Z,102431.41
2023-05-21T18:36:27.796Z,102425.09
2023-05-21T18:38:56.031Z,102434.94
2023-05-21T18:41:24.918Z,102442.41
2023-05-21T18:43:53.254Z,102437.59
2023-05-21T18:46:21.838Z,102433.88
2023-05-21T18:48:51.654Z,102442.22
2023-05-21T18:51:20.050Z,102447.19
2023-05-21T18:53:49.152Z,102441.72
2023-05-21T18:56:17.382Z,102449.19
2023-05-21T18:58:46.027Z,102452.16
2023-05-21T19:01:14.436Z,102454.47
2023-05-21T19:03:42.796Z,102451.16
2023-05-21T19:06:12.482Z,102449.19
2023-05-21T19:08:41.450Z,102454.16
2023-05-21T19:11:09.736Z,102452.47
2023-05-21T19:13:38.237Z,102461.47
2023-05-21T19:16:11.074Z,102453.13
2023-05-21T19:18:42.819Z,102447.00
2023-05-21T19:21:13.532Z,102455.81
2023-05-21T19:23:51.770Z,102452.47
2023-05-21T19:26:21.951Z,102454.16
2023-05-21T19:28:53.452Z,102451.00
2023-05-21T19:31:22.856Z,102446.66
2023-05-21T19:33:51.346Z,102445.69
2023-05-21T19:36:22.100Z,102441.19
2023-05-21T19:38:51.118Z,102442.16
2023-05-21T19:41:20.205Z,102445.50
2023-05-21T19:43:48.421Z,102451.50
2023-05-21T19:46:20.020Z,102444.34
2023-05-21T19:48:49.071Z,102446.16
2023-05-21T19:51:18.064Z,102447.34
2023-05-21T19:53:47.778Z,102446.34
2023-05-21T19:56:16.255Z,102449.50
2023-05-21T19:58:47.266Z,102446.00
2023-05-21T20:01:16.120Z,102437.03
2023-05-21T20:03:45.653Z,102436.38
2023-05-21T20:06:15.561Z,102441.84
2023-05-21T20:08:43.848Z,102444.97
2023-05-21T20:11:13.515Z,102450.78
2023-05-21T20:13:42.554Z,102450.13
2023-05-21T20:16:12.818Z,102454.63
2023-05-21T20:18:41.861Z,102452.97
2023-05-21T20:21:10.692Z,102455.94
2023-05-21T20:23:38.902Z,102459.59
2023-05-21T20:26:07.331Z,102452.78
2023-05-21T20:28:37.511Z,102458.44
2023-05-21T20:31:06.239Z,102460.56
2023-05-21T20:33:43.475Z,102466.06
2023-05-21T20:36:13.444Z,102469.03
2023-05-21T20:38:42.231Z,102460.06
2023-05-21T20:41:10.639Z,102464.38
2023-05-21T20:43:40.465Z,102468.72
2023-05-21T20:46:08.733Z,102460.88
2023-05-21T20:48:37.937Z,102465.19
2023-05-21T20:51:06.953Z,102466.38
2023-05-21T20:53:35.342Z,102463.88
2023-05-21T20:56:08.376Z,102461.06
2023-05-21T20:58:36.637Z,102461.06
2023-05-21T21:01:06.268Z,102470.03
2023-05-21T21:03:35.181Z,102462.72
2023-05-21T21:06:04.488Z,102457.41
2023-05-21T21:08:34.783Z,102461.72
2023-05-21T21:11:03.001Z,102459.88
2023-05-21T21:13:31.267Z,102457.22
2023-05-21T21:15:59.518Z,102455.44
2023-05-21T21:18:29.198Z,102460.06
2023-05-21T21:20:57.531Z,102460.75
2023-05-21T21:23:26.341Z,102457.41
2023-05-21T21:25:54.661Z,102460.22
2023-05-21T21:28:22.904Z,102461.22
2023-05-21T21:30:51.217Z,102457.72
2023-05-21T21:33:19.471Z,102462.06
2023-05-21T21:35:49.162Z,102456.88
2023-05-21T21:38:17.481Z,102450.72
2023-05-21T21:40:45.798Z,102456.06
2023-05-21T21:43:14.142Z,102450.59
2023-05-21T21:45:42.561Z,102461.22
2023-05-21T21:48:11.687Z,102458.72
2023-05-21T21:50:40.568Z,102455.06
2023-05-21T21:53:12.751Z,102455.22
2023-05-21T21:55:40.959Z,102455.22
2023-05-21T21:58:09.264Z,102459.72
2023-05-21T22:00:37.972Z,102463.19
2023-05-21T22:03:06.417Z,102458.88
2023-05-21T22:05:34.555Z,102464.03
2023-05-21T22:08:04.143Z,102460.38
2023-05-21T22:10:38.281Z,102457.41
2023-05-21T22:13:06.824Z,102462.06
2023-05-21T22:15:35.233Z,102463.72
2023-05-21T22:18:03.566Z,102457.56
2023-05-21T22:20:33.200Z,102459.22
2023-05-21T22:23:01.812Z,102459.06
2023-05-21T22:25:30.092Z,102467.22
2023-05-21T22:27:59.703Z,102459.41
2023-05-21T22:30:27.969Z,102453.41
2023-05-21T22:32:56.883Z,102457.06
2023-05-21T22:35:25.433Z,102461.53
2023-05-21T22:37:53.709Z,102455.41
2023-05-21T22:40:21.858Z,102461.38
2023-05-21T22:42:50.088Z,102455.41
2023-05-21T22:45:21.761Z,102457.38
2023-05-21T22:47:51.987Z,102454.03
2023-05-21T22:50:20.256Z,102457.72
2023-05-21T22:52:48.546Z,102453.22
2023-05-21T22:55:17.261Z,102461.19
2023-05-21T22:57:46.020Z,102455.88
2023-05-21T23:00:14.703Z,102459.53
2023-05-21T23:02:44.298Z,102463.03
2023-05-21T23:05:12.564Z,102459.53
2023-05-21T23:07:41.501Z,102463.34
2023-05-21T23:10:10.514Z,102457.19
2023-05-21T23:12:38.890Z,102459.00
2023-05-21T23:15:07.948Z,102459.19
2023-05-21T23:17:36.167Z,102458.19
2023-05-21T23:20:07.374Z,102458.19
2023-05-21T23:22:36.166Z,102463.63
2023-05-21T23:25:05.088Z,102456.84
2023-05-21T23:27:33.424Z,102462.47
2023-05-21T23:30:01.758Z,102460.97
2023-05-21T23:32:30.182Z,102450.00
2023-05-21T23:34:58.436Z,102450.13
2023-05-21T23:37:28.100Z,102450.31
2023-05-21T23:39:56.427Z,102458.28
2023-05-21T23:42:24.773Z,102455.94
2023-05-21T23:44:53.036Z,102455.09
2023-05-21T23:47:21.228Z,102459.19
2023-05-21T23:49:49.441Z,102460.50
2023-05-21T23:52:18.452Z,102462.31
2023-05-21T23:54:48.262Z,102460.50
2023-05-21T23:57:16.754Z,102468.31
2023-05-21T23:59:45.031Z,102463.16
